createdAt,value
2019-05-30T00:00:19.950Z,1010.72
2019-05-30T00:01:19.816Z,1010.70
2019-05-30T00:02:19.821Z,1010.68
2019-05-30T00:03:19.818Z,1010.73
2019-05-30T00:04:19.780Z,1010.69
2019-05-30T00:05:19.780Z,1010.72
2019-05-30T00:06:19.837Z,1010.73
2019-05-30T00:07:19.749Z,1010.73
2019-05-30T00:08:19.736Z,1010.68
2019-05-30T00:09:19.729Z,1010.65
2019-05-30T00:10:19.718Z,1010.62
2019-05-30T00:11:19.712Z,1010.57
2019-05-30T00:12:19.747Z,1010.61
2019-05-30T00:13:19.689Z,1010.59
2019-05-30T00:14:19.677Z,1010.60
2019-05-30T00:15:19.666Z,1010.54
2019-05-30T00:16:19.651Z,1010.57
2019-05-30T00:17:19.639Z,1010.60
2019-05-30T00:18:19.745Z,1010.57
2019-05-30T00:19:19.624Z,1010.59
2019-05-30T00:20:19.609Z,1010.53
2019-05-30T00:21:19.598Z,1010.56
2019-05-30T00:22:19.587Z,1010.56
2019-05-30T00:23:19.592Z,1010.59
2019-05-30T00:24:19.627Z,1010.60
2019-05-30T00:25:19.558Z,1010.56
2019-05-30T00:26:19.548Z,1010.57
2019-05-30T00:27:19.537Z,1010.53
2019-05-30T00:28:19.529Z,1010.60
2019-05-30T00:29:19.519Z,1010.61
2019-05-30T00:30:24.357Z,1010.55
2019-05-30T00:31:20.500Z,1010.61
2019-05-30T00:32:19.489Z,1010.56
2019-05-30T00:33:19.487Z,1010.59
2019-05-30T00:34:19.468Z,1010.68
2019-05-30T00:35:19.459Z,1010.61
2019-05-30T00:36:19.479Z,1010.54
2019-05-30T00:37:19.436Z,1010.62
2019-05-30T00:38:19.417Z,1010.63
2019-05-30T00:39:19.408Z,1010.59
2019-05-30T00:40:19.405Z,1010.56
2019-05-30T00:41:19.397Z,1010.62
2019-05-30T00:42:19.919Z,1010.57
2019-05-30T00:43:19.367Z,1010.56
2019-05-30T00:44:19.360Z,1010.55
2019-05-30T00:45:21.244Z,1010.52
2019-05-30T00:46:19.337Z,1010.57
2019-05-30T00:47:19.327Z,1010.53
2019-05-30T00:48:19.358Z,1010.55
2019-05-30T00:49:20.176Z,1010.46
2019-05-30T00:50:19.297Z,1010.47
2019-05-30T00:51:19.288Z,1010.57
2019-05-30T00:52:19.285Z,1010.53
2019-05-30T00:53:19.266Z,1010.50
2019-05-30T00:54:19.327Z,1010.49
2019-05-30T00:55:19.246Z,1010.41
2019-05-30T00:56:20.088Z,1010.41
2019-05-30T00:57:19.217Z,1010.44
2019-05-30T00:58:19.217Z,1010.39
2019-05-30T00:59:19.218Z,1010.46
2019-05-30T01:00:19.263Z,1010.36
2019-05-30T01:01:19.176Z,1010.32
2019-05-30T01:02:19.206Z,1010.31
2019-05-30T01:03:19.158Z,1010.38
2019-05-30T01:04:19.656Z,1010.39
2019-05-30T01:05:19.256Z,1010.37
2019-05-30T01:06:19.227Z,1010.34
2019-05-30T01:07:19.115Z,1010.45
2019-05-30T01:08:20.004Z,1010.38
2019-05-30T01:09:19.096Z,1010.40
2019-05-30T01:10:20.036Z,1010.35
2019-05-30T01:11:19.077Z,1010.38
2019-05-30T01:12:19.175Z,1010.38
2019-05-30T01:13:19.053Z,1010.39
2019-05-30T01:14:19.042Z,1010.39
2019-05-30T01:15:19.037Z,1010.39
2019-05-30T01:16:19.040Z,1010.41
2019-05-30T01:17:19.007Z,1010.40
2019-05-30T01:18:19.616Z,1010.34
2019-05-30T01:19:18.984Z,1010.34
2019-05-30T01:20:18.975Z,1010.32
2019-05-30T01:21:19.675Z,1010.31
2019-05-30T01:22:18.961Z,1010.35
2019-05-30T01:23:18.944Z,1010.32
2019-05-30T01:24:18.975Z,1010.31
2019-05-30T01:25:18.925Z,1010.29
2019-05-30T01:26:18.914Z,1010.26
2019-05-30T01:27:18.904Z,1010.28
2019-05-30T01:28:18.903Z,1010.28
2019-05-30T01:29:18.883Z,1010.31
2019-05-30T01:30:19.674Z,1010.25
2019-05-30T01:31:18.893Z,1010.24
2019-05-30T01:32:18.844Z,1010.26
2019-05-30T01:33:18.861Z,1010.19
2019-05-30T01:34:18.823Z,1010.25
2019-05-30T01:35:18.814Z,1010.21
2019-05-30T01:36:18.878Z,1010.24
2019-05-30T01:37:18.794Z,1010.26
2019-05-30T01:38:18.783Z,1010.27
2019-05-30T01:39:20.088Z,1010.17
2019-05-30T01:40:18.764Z,1010.21
2019-05-30T01:41:18.753Z,1010.18
2019-05-30T01:42:18.780Z,1010.24
2019-05-30T01:43:18.733Z,1010.22
2019-05-30T01:44:18.722Z,1010.18
2019-05-30T01:45:18.713Z,1010.20
2019-05-30T01:46:18.703Z,1010.17
2019-05-30T01:47:18.692Z,1010.24
2019-05-30T01:48:18.724Z,1010.20
2019-05-30T01:49:18.672Z,1010.21
2019-05-30T01:50:18.659Z,1010.21
2019-05-30T01:51:18.651Z,1010.18
2019-05-30T01:52:18.636Z,1010.22
2019-05-30T01:53:18.623Z,1010.20
2019-05-30T01:54:18.703Z,1010.20
2019-05-30T01:55:18.602Z,1010.18
2019-05-30T01:56:18.592Z,1010.17
2019-05-30T01:57:18.585Z,1010.15
2019-05-30T01:58:18.591Z,1010.09
2019-05-30T01:59:18.573Z,1010.13
2019-05-30T02:02:10.432Z,1010.12
2019-05-30T02:03:09.908Z,1010.10
2019-05-30T02:04:09.852Z,1010.07
2019-05-30T02:05:09.821Z,1010.05
2019-05-30T02:06:09.812Z,1010.06
2019-05-30T02:07:09.813Z,1010.08
2019-05-30T02:08:10.361Z,1010.06
2019-05-30T02:09:10.762Z,1010.05
2019-05-30T02:10:10.186Z,1010.11
2019-05-30T02:11:09.773Z,1010.07
2019-05-30T02:12:09.752Z,1010.09
2019-05-30T02:13:10.021Z,1010.09
2019-05-30T02:14:10.011Z,1010.04
2019-05-30T02:15:10.247Z,1010.05
2019-05-30T02:16:10.013Z,1010.06
2019-05-30T02:17:10.083Z,1010.12
2019-05-30T02:18:10.153Z,1010.08
2019-05-30T02:19:10.574Z,1010.07
2019-05-30T02:20:10.408Z,1010.13
2019-05-30T02:21:10.033Z,1010.13
2019-05-30T02:22:10.121Z,1010.11
2019-05-30T02:23:11.492Z,1010.12
2019-05-30T02:24:12.035Z,1010.13
2019-05-30T02:25:10.388Z,1010.11
2019-05-30T02:26:10.578Z,1010.15
2019-05-30T02:27:10.360Z,1010.17
2019-05-30T02:28:10.376Z,1010.15
2019-05-30T02:29:10.479Z,1010.11
2019-05-30T02:30:12.381Z,1010.17
2019-05-30T02:31:12.241Z,1010.17
2019-05-30T02:32:11.032Z,1010.11
2019-05-30T02:33:12.281Z,1010.11
2019-05-30T02:34:12.072Z,1010.12
2019-05-30T02:35:12.122Z,1010.09
2019-05-30T02:36:11.008Z,1010.13
2019-05-30T02:37:12.667Z,1010.09
2019-05-30T02:38:10.012Z,1010.12
2019-05-30T02:39:11.358Z,1010.12
2019-05-30T02:40:13.885Z,1010.19
2019-05-30T02:41:12.557Z,1010.21
2019-05-30T02:42:09.755Z,1010.21
2019-05-30T02:43:10.403Z,1010.20
2019-05-30T02:44:09.865Z,1010.19
2019-05-30T02:45:11.834Z,1010.19
2019-05-30T02:46:10.609Z,1010.25
2019-05-30T02:47:09.642Z,1010.19
2019-05-30T02:48:09.977Z,1010.16
2019-05-30T02:49:13.059Z,1010.17
2019-05-30T02:50:11.591Z,1010.16
2019-05-30T02:51:10.764Z,1010.21
2019-05-30T02:52:10.806Z,1010.21
2019-05-30T02:53:10.972Z,1010.21
2019-05-30T02:54:10.971Z,1010.20
2019-05-30T02:55:11.446Z,1010.18
2019-05-30T02:56:10.213Z,1010.23
2019-05-30T02:57:10.307Z,1010.22
2019-05-30T02:58:10.509Z,1010.24
2019-05-30T02:59:11.584Z,1010.23
2019-05-30T03:00:15.382Z,1010.25
2019-05-30T03:01:12.003Z,1010.23
2019-05-30T03:02:13.964Z,1010.21
2019-05-30T03:03:13.918Z,1010.16
2019-05-30T03:04:10.962Z,1010.12
2019-05-30T03:05:11.922Z,1010.12
2019-05-30T03:06:13.134Z,1010.13
2019-05-30T03:07:11.327Z,1010.16
2019-05-30T03:08:13.913Z,1010.11
2019-05-30T03:09:11.114Z,1010.18
2019-05-30T03:10:12.211Z,1010.20
2019-05-30T03:11:13.546Z,1010.19
2019-05-30T03:12:11.402Z,1010.21
2019-05-30T03:13:11.191Z,1010.19
2019-05-30T03:14:16.059Z,1010.20
2019-05-30T03:15:12.466Z,1010.22
2019-05-30T03:16:11.808Z,1010.19
2019-05-30T03:17:11.416Z,1010.19
2019-05-30T03:18:10.310Z,1010.18
2019-05-30T03:19:10.936Z,1010.21
2019-05-30T03:20:14.792Z,1010.21
2019-05-30T03:21:12.824Z,1010.24
2019-05-30T03:22:11.498Z,1010.15
2019-05-30T03:23:10.438Z,1010.18
2019-05-30T03:24:11.288Z,1010.20
2019-05-30T03:25:11.102Z,1010.20
2019-05-30T03:26:10.889Z,1010.20
2019-05-30T03:27:09.966Z,1010.23
2019-05-30T03:28:10.835Z,1010.23
2019-05-30T03:29:10.032Z,1010.20
2019-05-30T03:30:24.316Z,1010.20
2019-05-30T03:31:21.685Z,1010.26
2019-05-30T03:32:57.519Z,1010.18
2019-05-30T03:33:28.160Z,1010.21
2019-05-30T03:34:18.223Z,1010.19
2019-05-30T03:35:22.166Z,1010.20
2019-05-30T03:36:22.051Z,1010.17
2019-05-30T03:37:18.853Z,1010.14
2019-05-30T03:38:12.469Z,1010.19
2019-05-30T03:39:10.816Z,1010.18
2019-05-30T03:40:08.793Z,1010.20
2019-05-30T03:41:11.310Z,1010.21
2019-05-30T03:42:10.917Z,1010.19
2019-05-30T03:43:11.114Z,1010.17
2019-05-30T03:44:10.725Z,1010.24
2019-05-30T03:45:11.370Z,1010.22
2019-05-30T03:46:12.701Z,1010.18
2019-05-30T03:47:11.026Z,1010.27
2019-05-30T03:48:09.897Z,1010.27
2019-05-30T03:49:10.626Z,1010.23
2019-05-30T03:50:11.665Z,1010.25
2019-05-30T03:51:10.796Z,1010.28
2019-05-30T03:52:10.622Z,1010.23
2019-05-30T03:53:09.912Z,1010.20
2019-05-30T03:54:09.825Z,1010.25
2019-05-30T03:55:10.033Z,1010.25
2019-05-30T03:56:09.329Z,1010.18
2019-05-30T03:57:09.629Z,1010.19
2019-05-30T03:58:10.032Z,1010.21
2019-05-30T03:59:10.165Z,1010.24
2019-05-30T04:00:11.066Z,1010.24
2019-05-30T04:01:10.027Z,1010.20
2019-05-30T04:02:09.559Z,1010.21
2019-05-30T04:03:09.777Z,1010.22
2019-05-30T04:04:09.828Z,1010.26
2019-05-30T04:05:09.270Z,1010.25
2019-05-30T04:06:10.179Z,1010.24
2019-05-30T04:07:09.105Z,1010.20
2019-05-30T04:08:09.934Z,1010.21
2019-05-30T04:09:09.792Z,1010.27
2019-05-30T04:10:09.112Z,1010.23
2019-05-30T04:11:10.398Z,1010.24
2019-05-30T04:12:10.667Z,1010.16
2019-05-30T04:13:09.898Z,1010.19
2019-05-30T04:14:09.042Z,1010.21
2019-05-30T04:15:10.042Z,1010.21
2019-05-30T04:16:08.778Z,1010.18
2019-05-30T04:17:10.565Z,1010.20
2019-05-30T04:18:09.588Z,1010.18
2019-05-30T04:19:09.830Z,1010.16
2019-05-30T04:20:09.418Z,1010.15
2019-05-30T04:21:09.001Z,1010.16
2019-05-30T04:22:09.371Z,1010.09
2019-05-30T04:23:09.178Z,1010.15
2019-05-30T04:24:09.655Z,1010.11
2019-05-30T04:25:08.615Z,1010.13
2019-05-30T04:26:09.682Z,1010.11
2019-05-30T04:27:09.855Z,1010.13
2019-05-30T04:28:09.724Z,1010.14
2019-05-30T04:29:09.788Z,1010.23
2019-05-30T04:30:09.853Z,1010.20
2019-05-30T04:31:08.257Z,1010.19
2019-05-30T04:32:08.504Z,1010.22
2019-05-30T04:33:22.471Z,1010.25
2019-05-30T04:34:10.000Z,1010.22
2019-05-30T04:35:08.220Z,1010.22
2019-05-30T04:36:08.514Z,1010.22
2019-05-30T04:37:08.352Z,1010.26
2019-05-30T04:38:08.596Z,1010.24
2019-05-30T04:39:08.848Z,1010.24
2019-05-30T04:40:08.624Z,1010.23
2019-05-30T04:41:08.913Z,1010.22
2019-05-30T04:42:09.371Z,1010.22
2019-05-30T04:43:09.126Z,1010.18
2019-05-30T04:44:09.782Z,1010.19
2019-05-30T04:45:09.689Z,1010.19
2019-05-30T04:46:10.358Z,1010.16
2019-05-30T04:47:09.884Z,1010.14
2019-05-30T04:48:09.760Z,1010.19
2019-05-30T04:49:09.937Z,1010.16
2019-05-30T04:50:08.048Z,1010.18
2019-05-30T04:51:08.037Z,1010.17
2019-05-30T04:52:13.306Z,1010.14
2019-05-30T04:53:10.169Z,1010.14
2019-05-30T04:54:08.016Z,1010.16
2019-05-30T04:55:07.998Z,1010.18
2019-05-30T04:56:07.990Z,1010.13
2019-05-30T04:57:07.979Z,1010.13
2019-05-30T04:58:08.510Z,1010.15
2019-05-30T04:59:08.228Z,1010.16
2019-05-30T05:00:07.949Z,1010.17
2019-05-30T05:01:07.937Z,1010.22
2019-05-30T05:02:07.921Z,1010.15
2019-05-30T05:03:07.906Z,1010.16
2019-05-30T05:04:07.947Z,1010.17
2019-05-30T05:05:07.887Z,1010.17
2019-05-30T05:06:08.179Z,1010.20
2019-05-30T05:07:07.861Z,1010.18
2019-05-30T05:08:07.855Z,1010.18
2019-05-30T05:09:07.836Z,1010.16
2019-05-30T05:10:07.868Z,1010.21
2019-05-30T05:11:12.267Z,1010.18
2019-05-30T05:12:08.810Z,1010.19
2019-05-30T05:13:07.796Z,1010.18
2019-05-30T05:14:07.794Z,1010.20
2019-05-30T05:15:07.776Z,1010.16
2019-05-30T05:16:24.475Z,1010.20
2019-05-30T05:17:08.766Z,1010.16
2019-05-30T05:18:07.746Z,1010.14
2019-05-30T05:19:08.026Z,1010.20
2019-05-30T05:20:07.742Z,1010.16
2019-05-30T05:21:07.715Z,1010.16
2019-05-30T05:22:07.763Z,1010.14
2019-05-30T05:23:07.700Z,1010.12
2019-05-30T05:24:07.685Z,1010.14
2019-05-30T05:25:07.675Z,1010.15
2019-05-30T05:26:07.951Z,1010.21
2019-05-30T05:27:09.826Z,1010.18
2019-05-30T05:28:07.724Z,1010.22
2019-05-30T05:29:07.625Z,1010.18
2019-05-30T05:30:07.616Z,1010.24
2019-05-30T05:31:07.635Z,1010.23
2019-05-30T05:32:07.874Z,1010.22
2019-05-30T05:33:07.588Z,1010.26
2019-05-30T05:34:07.629Z,1010.26
2019-05-30T05:35:07.585Z,1010.24
2019-05-30T05:36:07.558Z,1010.21
2019-05-30T05:37:07.541Z,1010.24
2019-05-30T05:38:07.532Z,1010.23
2019-05-30T05:39:07.804Z,1010.18
2019-05-30T05:40:08.118Z,1010.21
2019-05-30T05:41:07.500Z,1010.21
2019-05-30T05:42:07.491Z,1010.22
2019-05-30T05:43:07.484Z,1010.23
2019-05-30T05:44:07.464Z,1010.26
2019-05-30T05:45:07.453Z,1010.24
2019-05-30T05:46:07.484Z,1010.22
2019-05-30T05:47:07.433Z,1010.25
2019-05-30T05:48:07.426Z,1010.22
2019-05-30T05:49:07.414Z,1010.23
2019-05-30T05:50:07.403Z,1010.29
2019-05-30T05:51:07.673Z,1010.26
2019-05-30T05:52:07.621Z,1010.24
2019-05-30T05:53:07.374Z,1010.24
2019-05-30T05:54:07.365Z,1010.26
2019-05-30T05:55:07.354Z,1010.23
2019-05-30T05:56:07.364Z,1010.17
2019-05-30T05:57:07.659Z,1010.19
2019-05-30T05:58:07.363Z,1010.16
2019-05-30T05:59:07.313Z,1010.24
2019-05-30T06:00:07.301Z,1010.20
2019-05-30T06:01:08.149Z,1010.22
2019-05-30T06:02:07.293Z,1010.22
2019-05-30T06:03:08.151Z,1010.23
2019-05-30T06:04:13.107Z,1010.23
2019-05-30T06:05:08.252Z,1010.24
2019-05-30T06:06:08.902Z,1010.28
2019-05-30T06:07:07.229Z,1010.25
2019-05-30T06:08:07.222Z,1010.27
2019-05-30T06:09:07.202Z,1010.31
2019-05-30T06:10:07.299Z,1010.36
2019-05-30T06:11:07.213Z,1010.39
2019-05-30T06:12:07.209Z,1010.41
2019-05-30T06:13:07.180Z,1010.37
2019-05-30T06:14:07.152Z,1010.45
2019-05-30T06:15:07.191Z,1010.41
2019-05-30T06:16:07.522Z,1010.39
2019-05-30T06:17:07.119Z,1010.32
2019-05-30T06:18:07.102Z,1010.37
2019-05-30T06:19:08.462Z,1010.38
2019-05-30T06:20:07.102Z,1010.40
2019-05-30T06:21:08.195Z,1010.40
2019-05-30T06:22:07.112Z,1010.43
2019-05-30T06:23:07.052Z,1010.39
2019-05-30T06:24:07.062Z,1010.40
2019-05-30T06:25:07.033Z,1010.38
2019-05-30T06:26:07.041Z,1010.47
2019-05-30T06:27:07.084Z,1010.50
2019-05-30T06:28:07.350Z,1010.48
2019-05-30T06:29:07.552Z,1010.50
2019-05-30T06:30:06.972Z,1010.53
2019-05-30T06:31:06.961Z,1010.52
2019-05-30T06:32:06.952Z,1010.52
2019-05-30T06:33:06.941Z,1010.49
2019-05-30T06:34:06.982Z,1010.48
2019-05-30T06:35:07.201Z,1010.53
2019-05-30T06:36:06.920Z,1010.53
2019-05-30T06:37:06.928Z,1010.52
2019-05-30T06:38:06.887Z,1010.48
2019-05-30T06:39:06.871Z,1010.53
2019-05-30T06:40:06.903Z,1010.53
2019-05-30T06:41:06.851Z,1010.50
2019-05-30T06:42:07.121Z,1010.48
2019-05-30T06:43:06.831Z,1010.43
2019-05-30T06:44:06.836Z,1010.52
2019-05-30T06:45:06.809Z,1010.55
2019-05-30T06:46:07.543Z,1010.49
2019-05-30T06:47:07.380Z,1010.42
2019-05-30T06:48:06.789Z,1010.42
2019-05-30T06:49:06.781Z,1010.44
2019-05-30T06:50:06.760Z,1010.46
2019-05-30T06:51:06.753Z,1010.48
2019-05-30T06:52:06.775Z,1010.39
2019-05-30T06:53:06.723Z,1010.41
2019-05-30T06:54:06.710Z,1010.37
2019-05-30T06:55:06.983Z,1010.35
2019-05-30T06:56:06.691Z,1010.37
2019-05-30T06:57:06.701Z,1010.36
2019-05-30T06:58:06.700Z,1010.35
2019-05-30T06:59:06.676Z,1010.35
2019-05-30T07:00:06.650Z,1010.38
2019-05-30T07:01:06.681Z,1010.37
2019-05-30T07:02:06.627Z,1010.37
2019-05-30T07:03:06.641Z,1010.37
2019-05-30T07:04:06.977Z,1010.36
2019-05-30T07:05:07.112Z,1010.40
2019-05-30T07:06:07.117Z,1010.45
2019-05-30T07:07:06.811Z,1010.45
2019-05-30T07:08:06.848Z,1010.47
2019-05-30T07:09:06.570Z,1010.43
2019-05-30T07:10:06.600Z,1010.50
2019-05-30T07:11:06.531Z,1010.49
2019-05-30T07:12:06.539Z,1010.52
2019-05-30T07:13:06.509Z,1010.53
2019-05-30T07:14:06.810Z,1010.53
2019-05-30T07:15:06.508Z,1010.54
2019-05-30T07:16:06.511Z,1010.57
2019-05-30T07:17:06.480Z,1010.58
2019-05-30T07:18:06.492Z,1010.59
2019-05-30T07:19:06.446Z,1010.57
2019-05-30T07:20:06.439Z,1010.63
2019-05-30T07:21:06.439Z,1010.55
2019-05-30T07:22:06.910Z,1010.53
2019-05-30T07:23:06.400Z,1010.52
2019-05-30T07:24:07.119Z,1010.57
2019-05-30T07:25:06.391Z,1010.51
2019-05-30T07:26:07.547Z,1010.60
2019-05-30T07:27:06.359Z,1010.61
2019-05-30T07:28:06.391Z,1010.63
2019-05-30T07:29:07.129Z,1010.63
2019-05-30T07:30:06.342Z,1010.61
2019-05-30T07:31:06.319Z,1010.61
2019-05-30T07:32:06.330Z,1010.65
2019-05-30T07:33:06.299Z,1010.57
2019-05-30T07:34:06.326Z,1010.61
2019-05-30T07:35:07.526Z,1010.67
2019-05-30T07:36:06.259Z,1010.70
2019-05-30T07:37:07.198Z,1010.64
2019-05-30T07:38:07.610Z,1010.62
2019-05-30T07:39:06.247Z,1010.64
2019-05-30T07:40:06.261Z,1010.63
2019-05-30T07:41:06.218Z,1010.68
2019-05-30T07:42:07.215Z,1010.64
2019-05-30T07:43:06.209Z,1010.60
2019-05-30T07:44:06.181Z,1010.65
2019-05-30T07:45:06.179Z,1010.64
2019-05-30T07:46:06.213Z,1010.67
2019-05-30T07:47:06.149Z,1010.69
2019-05-30T07:48:06.849Z,1010.63
2019-05-30T07:49:06.121Z,1010.69
2019-05-30T07:50:07.398Z,1010.70
2019-05-30T07:51:06.106Z,1010.71
2019-05-30T07:52:06.173Z,1010.69
2019-05-30T07:53:06.078Z,1010.70
2019-05-30T07:54:06.079Z,1010.72
2019-05-30T07:55:06.061Z,1010.68
2019-05-30T07:56:06.341Z,1010.62
2019-05-30T07:57:06.041Z,1010.70
2019-05-30T07:58:06.102Z,1010.68
2019-05-30T07:59:06.019Z,1010.73
2019-05-30T08:00:06.010Z,1010.67
2019-05-30T08:01:06.027Z,1010.63
2019-05-30T08:02:05.989Z,1010.74
2019-05-30T08:03:05.979Z,1010.66
2019-05-30T08:04:06.607Z,1010.75
2019-05-30T08:05:20.751Z,1010.74
2019-05-30T08:06:06.954Z,1010.78
2019-05-30T08:07:05.948Z,1010.75
2019-05-30T08:08:06.224Z,1010.75
2019-05-30T08:09:05.908Z,1010.76
2019-05-30T08:10:05.957Z,1010.73
2019-05-30T08:11:09.303Z,1010.71
2019-05-30T08:12:05.892Z,1010.77
2019-05-30T08:13:06.560Z,1010.74
2019-05-30T08:14:06.553Z,1010.76
2019-05-30T08:15:06.250Z,1010.64
2019-05-30T08:16:05.887Z,1010.72
2019-05-30T08:17:05.827Z,1010.76
2019-05-30T08:18:05.850Z,1010.77
2019-05-30T08:19:05.814Z,1010.68
2019-05-30T08:20:05.802Z,1010.82
2019-05-30T08:21:05.787Z,1010.71
2019-05-30T08:22:06.089Z,1010.76
2019-05-30T08:23:09.498Z,1010.79
2019-05-30T08:24:06.031Z,1010.83
2019-05-30T08:25:05.750Z,1010.84
2019-05-30T08:26:05.742Z,1010.84
2019-05-30T08:27:05.718Z,1010.79
2019-05-30T08:28:05.755Z,1010.83
2019-05-30T08:29:05.978Z,1010.87
2019-05-30T08:30:05.699Z,1010.90
2019-05-30T08:31:05.726Z,1010.92
2019-05-30T08:32:05.673Z,1010.88
2019-05-30T08:33:05.648Z,1010.86
2019-05-30T08:34:06.258Z,1010.91
2019-05-30T08:35:05.630Z,1010.83
2019-05-30T08:36:06.108Z,1010.83
2019-05-30T08:37:05.607Z,1010.85
2019-05-30T08:38:05.608Z,1010.78
2019-05-30T08:39:05.588Z,1010.86
2019-05-30T08:40:05.647Z,1010.80
2019-05-30T08:41:05.577Z,1010.90
2019-05-30T08:42:05.566Z,1010.82
2019-05-30T08:43:05.565Z,1010.79
2019-05-30T08:44:05.546Z,1010.78
2019-05-30T08:45:05.528Z,1010.82
2019-05-30T08:46:05.577Z,1010.79
2019-05-30T08:47:05.533Z,1010.89
2019-05-30T08:48:05.499Z,1010.88
2019-05-30T08:49:05.489Z,1010.86
2019-05-30T08:50:05.481Z,1010.98
2019-05-30T08:51:05.466Z,1010.88
2019-05-30T08:52:05.500Z,1010.77
2019-05-30T08:53:05.450Z,1010.84
2019-05-30T08:54:05.465Z,1010.81
2019-05-30T08:55:05.697Z,1010.81
2019-05-30T08:56:05.408Z,1010.89
2019-05-30T08:57:06.147Z,1010.89
2019-05-30T08:58:05.436Z,1010.84
2019-05-30T08:59:05.384Z,1010.86
2019-05-30T09:00:05.459Z,1010.85
2019-05-30T09:01:05.355Z,1010.80
2019-05-30T09:02:05.359Z,1010.97
2019-05-30T09:03:05.352Z,1010.89
2019-05-30T09:04:05.368Z,1010.88
2019-05-30T09:05:07.034Z,1010.99
2019-05-30T09:06:05.317Z,1010.87
2019-05-30T09:07:05.315Z,1010.89
2019-05-30T09:08:05.285Z,1010.87
2019-05-30T09:09:05.888Z,1010.96
2019-05-30T09:10:05.319Z,1010.91
2019-05-30T09:11:05.263Z,1010.90
2019-05-30T09:12:05.958Z,1010.87
2019-05-30T09:13:05.337Z,1010.89
2019-05-30T09:14:05.216Z,1010.91
2019-05-30T09:15:05.218Z,1010.84
2019-05-30T09:16:05.297Z,1010.83
2019-05-30T09:17:05.187Z,1010.94
2019-05-30T09:18:05.197Z,1010.92
2019-05-30T09:19:05.658Z,1010.91
2019-05-30T09:20:06.660Z,1010.90
2019-05-30T09:21:05.168Z,1010.94
2019-05-30T09:22:05.178Z,1010.86
2019-05-30T09:23:05.117Z,1010.91
2019-05-30T09:24:05.118Z,1010.82
2019-05-30T09:25:05.487Z,1010.80
2019-05-30T09:26:05.105Z,1010.89
2019-05-30T09:27:05.086Z,1010.84
2019-05-30T09:28:05.600Z,1010.81
2019-05-30T09:29:06.920Z,1010.81
2019-05-30T09:30:05.813Z,1010.79
2019-05-30T09:31:05.796Z,1010.80
2019-05-30T09:32:05.027Z,1010.73
2019-05-30T09:33:05.029Z,1010.84
2019-05-30T09:34:05.066Z,1010.80
2019-05-30T09:35:05.804Z,1010.68
2019-05-30T09:36:13.117Z,1010.67
2019-05-30T09:37:05.966Z,1010.73
2019-05-30T09:38:05.796Z,1010.73
2019-05-30T09:39:04.973Z,1010.69
2019-05-30T09:40:04.986Z,1010.73
2019-05-30T09:41:04.926Z,1010.72
2019-05-30T09:42:05.085Z,1010.67
2019-05-30T09:43:04.929Z,1010.66
2019-05-30T09:44:06.866Z,1010.69
2019-05-30T09:45:04.926Z,1010.65
2019-05-30T09:46:04.926Z,1010.71
2019-05-30T09:47:05.011Z,1010.63
2019-05-30T09:48:05.345Z,1010.65
2019-05-30T09:49:04.848Z,1010.69
2019-05-30T09:50:04.834Z,1010.70
2019-05-30T09:51:07.147Z,1010.66
2019-05-30T09:52:04.865Z,1010.64
2019-05-30T09:53:04.796Z,1010.73
2019-05-30T09:54:04.786Z,1010.72
2019-05-30T09:55:04.783Z,1010.71
2019-05-30T09:56:04.771Z,1010.65
2019-05-30T09:57:04.756Z,1010.65
2019-05-30T09:58:05.073Z,1010.64
2019-05-30T09:59:04.736Z,1010.63
2019-05-30T10:00:04.756Z,1010.69
2019-05-30T10:01:04.717Z,1010.63
2019-05-30T10:02:04.725Z,1010.66
2019-05-30T10:03:04.706Z,1010.66
2019-05-30T10:04:06.420Z,1010.71
2019-05-30T10:05:05.148Z,1010.66
2019-05-30T10:06:04.666Z,1010.67
2019-05-30T10:07:04.646Z,1010.54
2019-05-30T10:08:05.169Z,1010.66
2019-05-30T10:09:04.633Z,1010.62
2019-05-30T10:10:04.664Z,1010.62
2019-05-30T10:11:04.610Z,1010.59
2019-05-30T10:12:05.046Z,1010.62
2019-05-30T10:13:04.596Z,1010.62
2019-05-30T10:14:04.607Z,1010.59
2019-05-30T10:15:04.584Z,1010.59
2019-05-30T10:16:05.478Z,1010.60
2019-05-30T10:17:04.712Z,1010.61
2019-05-30T10:18:04.576Z,1010.57
2019-05-30T10:19:04.537Z,1010.73
2019-05-30T10:20:04.521Z,1010.63
2019-05-30T10:21:04.512Z,1010.64
2019-05-30T10:22:04.661Z,1010.66
2019-05-30T10:23:05.023Z,1010.67
2019-05-30T10:24:04.603Z,1010.68
2019-05-30T10:25:04.948Z,1010.62
2019-05-30T10:26:04.497Z,1010.61
2019-05-30T10:27:04.434Z,1010.60
2019-05-30T10:28:04.977Z,1010.61
2019-05-30T10:29:04.418Z,1010.69
2019-05-30T10:30:04.998Z,1010.62
2019-05-30T10:31:04.966Z,1010.64
2019-05-30T10:32:04.377Z,1010.63
2019-05-30T10:33:04.387Z,1010.69
2019-05-30T10:34:04.410Z,1010.71
2019-05-30T10:35:04.402Z,1010.69
2019-05-30T10:36:05.477Z,1010.68
2019-05-30T10:37:05.807Z,1010.71
2019-05-30T10:38:05.818Z,1010.73
2019-05-30T10:39:04.307Z,1010.64
2019-05-30T10:40:04.348Z,1010.64
2019-05-30T10:41:05.017Z,1010.74
2019-05-30T10:42:04.277Z,1010.76
2019-05-30T10:43:06.290Z,1010.75
2019-05-30T10:44:04.285Z,1010.71
2019-05-30T10:45:04.254Z,1010.80
2019-05-30T10:46:04.437Z,1010.72
2019-05-30T10:47:04.226Z,1010.74
2019-05-30T10:48:04.766Z,1010.77
2019-05-30T10:49:04.235Z,1010.73
2019-05-30T10:50:04.207Z,1010.73
2019-05-30T10:51:04.185Z,1010.75
2019-05-30T10:52:04.307Z,1010.78
2019-05-30T10:53:04.180Z,1010.79
2019-05-30T10:54:04.152Z,1010.77
2019-05-30T10:55:04.137Z,1010.72
2019-05-30T10:56:04.128Z,1010.75
2019-05-30T10:57:04.139Z,1010.74
2019-05-30T10:58:04.176Z,1010.70
2019-05-30T10:59:04.307Z,1010.68
2019-05-30T11:00:09.524Z,1010.68
2019-05-30T11:01:05.076Z,1010.59
2019-05-30T11:02:05.420Z,1010.63
2019-05-30T11:03:05.286Z,1010.71
2019-05-30T11:04:05.193Z,1010.65
2019-05-30T11:05:04.071Z,1010.62
2019-05-30T11:06:04.081Z,1010.69
2019-05-30T11:07:11.008Z,1010.72
2019-05-30T11:08:06.266Z,1010.72
2019-05-30T11:09:04.208Z,1010.72
2019-05-30T11:10:05.177Z,1010.67
2019-05-30T11:11:04.676Z,1010.72
2019-05-30T11:12:04.287Z,1010.74
2019-05-30T11:13:06.074Z,1010.76
2019-05-30T11:14:03.935Z,1010.73
2019-05-30T11:15:04.573Z,1010.78
2019-05-30T11:16:04.439Z,1010.74
2019-05-30T11:17:03.906Z,1010.75
2019-05-30T11:18:03.936Z,1010.73
2019-05-30T11:19:07.352Z,1010.72
2019-05-30T11:20:04.168Z,1010.75
2019-05-30T11:21:03.869Z,1010.73
2019-05-30T11:22:03.916Z,1010.75
2019-05-30T11:23:03.871Z,1010.71
2019-05-30T11:24:04.417Z,1010.64
2019-05-30T11:25:03.818Z,1010.69
2019-05-30T11:26:03.974Z,1010.62
2019-05-30T11:27:03.838Z,1010.57
2019-05-30T11:28:03.853Z,1010.65
2019-05-30T11:29:04.646Z,1010.65
2019-05-30T11:30:04.425Z,1010.71
2019-05-30T11:31:04.737Z,1010.68
2019-05-30T11:32:03.747Z,1010.75
2019-05-30T11:33:04.117Z,1010.78
2019-05-30T11:34:03.825Z,1010.79
2019-05-30T11:35:03.759Z,1010.80
2019-05-30T11:36:03.746Z,1010.83
2019-05-30T11:37:18.288Z,1010.79
2019-05-30T11:38:04.769Z,1010.79
2019-05-30T11:39:03.676Z,1010.78
2019-05-30T11:40:04.209Z,1010.72
2019-05-30T11:41:03.668Z,1010.73
2019-05-30T11:42:03.645Z,1010.75
2019-05-30T11:43:03.638Z,1010.75
2019-05-30T11:44:04.288Z,1010.78
2019-05-30T11:45:03.619Z,1010.71
2019-05-30T11:46:04.527Z,1010.68
2019-05-30T11:47:03.881Z,1010.74
2019-05-30T11:48:03.614Z,1010.73
2019-05-30T11:49:03.589Z,1010.73
2019-05-30T11:50:03.556Z,1010.80
2019-05-30T11:51:03.541Z,1010.78
2019-05-30T11:52:03.597Z,1010.75
2019-05-30T11:53:03.531Z,1010.75
2019-05-30T11:54:03.798Z,1010.79
2019-05-30T11:55:03.507Z,1010.77
2019-05-30T11:56:03.493Z,1010.79
2019-05-30T11:57:03.482Z,1010.78
2019-05-30T11:58:03.509Z,1010.81
2019-05-30T11:59:03.459Z,1010.82
2019-05-30T12:00:03.459Z,1010.85
2019-05-30T12:01:03.463Z,1010.84
2019-05-30T12:02:03.453Z,1010.83
2019-05-30T12:03:03.427Z,1010.86
2019-05-30T12:04:03.494Z,1010.86
2019-05-30T12:05:03.397Z,1010.90
2019-05-30T12:06:03.716Z,1010.88
2019-05-30T12:07:03.376Z,1010.91